createdAt,value
2022-12-14T00:01:41.858Z,96929.19
2022-12-14T00:06:46.875Z,96919.44
2022-12-14T00:11:48.707Z,96902.19
2022-12-14T00:16:50.896Z,96900.94
2022-12-14T00:21:52.652Z,96886.19
2022-12-14T00:26:55.070Z,96880.25
2022-12-14T00:31:56.912Z,96873.09
2022-12-14T00:36:58.726Z,96865.59
2022-12-14T00:42:00.551Z,96861.16
2022-12-14T00:47:02.323Z,96862.53
2022-12-14T00:52:04.108Z,96872.63
2022-12-14T00:57:05.921Z,96876.31
2022-12-14T01:02:07.738Z,96883.00
2022-12-14T01:07:09.593Z,96884.63
2022-12-14T01:12:11.381Z,96872.28
2022-12-14T01:17:13.177Z,96875.06
2022-12-14T01:22:14.927Z,96859.91
2022-12-14T01:27:16.773Z,96844.53
2022-12-14T01:32:18.569Z,96844.28
2022-12-14T01:37:20.375Z,96833.56
2022-12-14T01:42:22.326Z,96840.69
2022-12-14T01:47:33.257Z,96843.56
2022-12-14T01:52:47.079Z,96843.28
2022-12-14T01:57:58.018Z,96837.78
2022-12-14T02:03:09.400Z,96848.00
2022-12-14T02:08:12.165Z,96843.81
2022-12-14T02:13:27.758Z,96839.91
2022-12-14T02:18:32.020Z,96836.16
2022-12-14T02:23:36.681Z,96835.13
2022-12-14T02:29:03.465Z,96837.66
2022-12-14T02:34:21.548Z,96825.91
2022-12-14T02:40:01.915Z,96804.84
2022-12-14T02:45:20.256Z,96805.97
2022-12-14T02:50:38.141Z,96794.44
2022-12-14T02:55:49.108Z,96787.84
2022-12-14T03:00:53.314Z,96781.69
2022-12-14T03:06:04.504Z,96781.00
2022-12-14T03:11:07.514Z,96766.06
2022-12-14T03:16:15.373Z,96767.09
2022-12-14T03:21:24.076Z,96761.63
2022-12-14T03:26:44.190Z,96756.44
2022-12-14T03:31:54.569Z,96755.34
2022-12-14T03:37:09.642Z,96756.47
2022-12-14T03:42:30.169Z,96747.44
2022-12-14T03:47:47.200Z,96745.09
2022-12-14T03:53:10.835Z,96738.53
2022-12-14T03:58:22.607Z,96720.44
2022-12-14T04:03:27.999Z,96712.28
2022-12-14T04:08:40.160Z,96713.38
2022-12-14T04:14:05.880Z,96696.25
2022-12-14T04:19:16.674Z,96690.28
2022-12-14T04:24:53.249Z,96676.56
2022-12-14T04:29:57.199Z,96669.94
2022-12-14T04:35:18.164Z,96654.19
2022-12-14T04:40:33.977Z,96643.13
2022-12-14T04:45:42.414Z,96633.50
2022-12-14T04:50:49.418Z,96622.06
2022-12-14T04:56:07.103Z,96623.50
2022-12-14T05:01:24.600Z,96607.81
2022-12-14T05:06:29.532Z,96609.47
2022-12-14T05:11:56.672Z,96600.03
2022-12-14T05:17:01.260Z,96596.31
2022-12-14T05:22:08.067Z,96584.16
2022-12-14T05:27:09.931Z,96571.69
2022-12-14T05:32:12.850Z,96574.81
2022-12-14T05:37:18.279Z,96555.84
2022-12-14T05:42:20.447Z,96547.25
2022-12-14T05:47:22.239Z,96522.72
2022-12-14T05:52:27.133Z,96530.09
2022-12-14T05:57:28.936Z,96525.03
2022-12-14T06:02:30.826Z,96521.81
2022-12-14T06:07:32.727Z,96532.06
2022-12-14T06:12:34.673Z,96541.56
2022-12-14T06:17:36.511Z,96530.69
2022-12-14T06:22:42.783Z,96529.28
2022-12-14T06:27:47.629Z,96524.22
2022-12-14T06:32:49.371Z,96530.53
2022-12-14T06:37:51.129Z,96525.03
2022-12-14T06:42:52.850Z,96528.25
2022-12-14T06:47:54.871Z,96523.06
2022-12-14T06:52:56.732Z,96520.09
2022-12-14T06:57:58.715Z,96521.38
2022-12-14T07:03:00.678Z,96515.03
2022-12-14T07:08:03.824Z,96511.69
2022-12-14T07:13:05.604Z,96493.75
2022-12-14T07:18:07.385Z,96496.97
2022-12-14T07:23:09.134Z,96495.78
2022-12-14T07:28:10.888Z,96492.81
2022-12-14T07:33:13.121Z,96481.44
2022-12-14T07:38:14.906Z,96480.91
2022-12-14T07:43:18.846Z,96478.41
2022-12-14T07:48:20.647Z,96469.66
2022-12-14T07:53:22.419Z,96466.91
2022-12-14T07:58:24.352Z,96452.97
2022-12-14T08:03:26.536Z,96459.78
2022-12-14T08:08:28.544Z,96455.97
2022-12-14T08:13:30.990Z,96451.03
2022-12-14T08:18:33.973Z,96447.78
2022-12-14T08:23:36.466Z,96432.22
2022-12-14T08:28:38.375Z,96433.81
2022-12-14T08:33:41.613Z,96427.09
2022-12-14T08:38:43.483Z,96415.59
2022-12-14T08:43:49.622Z,96409.25
2022-12-14T08:48:53.179Z,96398.72
2022-12-14T08:53:55.537Z,96390.78
2022-12-14T08:58:57.843Z,96392.88
2022-12-14T09:04:05.095Z,96389.50
2022-12-14T09:09:13.575Z,96384.66
2022-12-14T09:14:18.111Z,96380.41
2022-12-14T09:19:20.123Z,96377.75
2022-12-14T09:24:24.513Z,96370.47
2022-12-14T09:29:26.830Z,96362.66
2022-12-14T09:34:29.310Z,96348.97
2022-12-14T09:39:35.834Z,96346.38
2022-12-14T09:44:44.058Z,96354.66
2022-12-14T09:50:17.658Z,96343.94
2022-12-14T09:55:33.878Z,96320.34
2022-12-14T10:00:49.625Z,96324.44
2022-12-14T10:05:57.894Z,96320.69
2022-12-14T10:11:20.912Z,96309.56
2022-12-14T10:16:30.833Z,96313.88
2022-12-14T10:21:39.152Z,96320.13
2022-12-14T10:26:50.340Z,96322.72
2022-12-14T10:32:13.490Z,96313.09
2022-12-14T10:37:39.766Z,96298.22
2022-12-14T10:42:49.464Z,96298.22
2022-12-14T10:47:57.988Z,96292.34
2022-12-14T10:53:03.081Z,96291.25
2022-12-14T10:58:04.974Z,96301.19
2022-12-14T11:03:14.041Z,96297.81
2022-12-14T11:08:53.709Z,96300.66
2022-12-14T11:14:07.624Z,96305.66
2022-12-14T11:19:18.530Z,96291.75
2022-12-14T11:24:26.301Z,96290.63
2022-12-14T11:29:35.531Z,96283.75
2022-12-14T11:34:40.459Z,96279.47
2022-12-14T11:39:42.771Z,96274.13
2022-12-14T11:44:46.265Z,96275.09
2022-12-14T11:49:51.213Z,96265.88
2022-12-14T11:54:54.379Z,96259.31
2022-12-14T12:00:04.374Z,96257.63
2022-12-14T12:05:16.359Z,96246.97
2022-12-14T12:10:25.722Z,96262.47
2022-12-14T12:15:38.558Z,96257.81
2022-12-14T12:20:52.055Z,96256.88
2022-12-14T12:25:56.806Z,96255.03
2022-12-14T12:31:10.958Z,96248.56
2022-12-14T12:36:22.022Z,96253.06
2022-12-14T12:42:15.324Z,96244.50
2022-12-14T12:47:29.044Z,96241.94
2022-12-14T12:53:01.118Z,96237.81
2022-12-14T12:58:09.922Z,96228.22
2022-12-14T13:03:32.424Z,96223.41
2022-12-14T13:08:39.460Z,96204.00
2022-12-14T13:13:47.359Z,96195.66
2022-12-14T13:19:04.977Z,96193.78
2022-12-14T13:24:18.714Z,96186.66
2022-12-14T13:29:57.886Z,96212.28
2022-12-14T13:35:37.765Z,96202.22
2022-12-14T13:40:58.248Z,96204.66
2022-12-14T13:46:22.031Z,96201.84
2022-12-14T13:51:30.993Z,96200.50
2022-12-14T13:56:40.364Z,96186.84
2022-12-14T14:01:48.397Z,96185.63
2022-12-14T14:06:52.141Z,96192.63
2022-12-14T14:12:04.295Z,96189.13
2022-12-14T14:17:17.397Z,96193.41
2022-12-14T14:22:23.892Z,96199.56
2022-12-14T14:27:37.714Z,96201.84
2022-12-14T14:32:42.478Z,96201.16
2022-12-14T14:37:55.593Z,96197.53
2022-12-14T14:43:07.830Z,96199.38
2022-12-14T14:48:32.570Z,96196.97
2022-12-14T14:53:36.791Z,96208.50
2022-12-14T14:58:40.989Z,96200.06
2022-12-14T15:03:45.804Z,96203.66
2022-12-14T15:08:58.541Z,96200.84
2022-12-14T15:14:46.731Z,96208.59
2022-12-14T15:19:53.024Z,96201.63
2022-12-14T15:24:58.232Z,96187.66
2022-12-14T15:30:27.600Z,96194.75
2022-12-14T15:35:39.126Z,96203.44
2022-12-14T15:40:41.360Z,96203.56
2022-12-14T15:45:47.071Z,96191.66
2022-12-14T15:50:54.672Z,96200.22
2022-12-14T15:56:02.069Z,96215.88
2022-12-14T16:01:13.842Z,96218.03
2022-12-14T16:06:17.380Z,96215.41
2022-12-14T16:11:33.053Z,96215.53
2022-12-14T16:16:35.068Z,96214.47
2022-12-14T16:21:36.920Z,96224.25
2022-12-14T16:26:38.904Z,96221.16
2022-12-14T16:31:40.792Z,96230.81
2022-12-14T16:36:45.467Z,96224.53
2022-12-14T16:42:04.057Z,96225.38
2022-12-14T16:47:11.914Z,96229.25
2022-12-14T16:52:19.972Z,96225.66
2022-12-14T16:57:24.316Z,96224.31
2022-12-14T17:02:36.239Z,96219.22
2022-12-14T17:07:38.646Z,96224.56
2022-12-14T17:12:40.490Z,96225.78
2022-12-14T17:17:42.994Z,96224.97
2022-12-14T17:22:49.731Z,96222.19
2022-12-14T17:27:51.824Z,96233.56
2022-12-14T17:32:54.930Z,96241.84
2022-12-14T17:37:57.093Z,96235.81
2022-12-14T17:42:59.030Z,96232.28
2022-12-14T17:48:00.949Z,96239.34
2022-12-14T17:53:02.742Z,96250.09
2022-12-14T17:58:04.655Z,96258.53
2022-12-14T18:03:07.579Z,96259.06
2022-12-14T18:08:10.185Z,96259.94
2022-12-14T18:13:13.041Z,96255.38
2022-12-14T18:18:14.829Z,96260.44
2022-12-14T18:23:17.991Z,96263.25
2022-12-14T18:28:20.572Z,96272.72
2022-12-14T18:33:25.451Z,96273.78
2022-12-14T18:38:27.526Z,96277.38
2022-12-14T18:43:30.423Z,96285.94
2022-12-14T18:48:32.552Z,96294.19
2022-12-14T18:53:34.737Z,96291.84
2022-12-14T18:58:36.844Z,96295.94
2022-12-14T19:03:39.161Z,96297.28
2022-12-14T19:08:41.672Z,96316.75
2022-12-14T19:13:46.796Z,96318.22
2022-12-14T19:18:48.655Z,96324.50
2022-12-14T19:23:50.447Z,96328.88
2022-12-14T19:28:52.295Z,96321.78
2022-12-14T19:33:54.162Z,96325.84
2022-12-14T19:38:56.032Z,96323.81
2022-12-14T19:43:58.248Z,96324.53
2022-12-14T19:49:00.601Z,96332.13
2022-12-14T19:54:03.874Z,96338.94
2022-12-14T19:59:05.672Z,96343.78
2022-12-14T20:04:07.481Z,96337.78
2022-12-14T20:09:09.952Z,96346.28
2022-12-14T20:14:13.475Z,96340.78
2022-12-14T20:19:15.336Z,96346.03
2022-12-14T20:24:17.545Z,96344.72
2022-12-14T20:29:19.512Z,96349.50
2022-12-14T20:34:21.446Z,96356.16
2022-12-14T20:39:23.273Z,96344.94
2022-12-14T20:44:25.059Z,96349.31
2022-12-14T20:49:30.118Z,96352.59
2022-12-14T20:54:32.140Z,96358.19
2022-12-14T20:59:33.944Z,96359.22
2022-12-14T21:04:35.760Z,96369.25
2022-12-14T21:09:37.701Z,96364.00
2022-12-14T21:14:48.182Z,96369.97
2022-12-14T21:19:50.765Z,96364.91
2022-12-14T21:25:08.295Z,96374.03
2022-12-14T21:30:11.545Z,96378.50
2022-12-14T21:35:17.583Z,96388.91
2022-12-14T21:40:39.419Z,96393.97
2022-12-14T21:45:41.242Z,96402.81
2022-12-14T21:50:45.338Z,96411.75
2022-12-14T21:55:51.502Z,96408.78
2022-12-14T22:00:53.342Z,96408.41
2022-12-14T22:05:55.186Z,96410.13
2022-12-14T22:11:02.434Z,96410.75
2022-12-14T22:16:06.134Z,96427.59
2022-12-14T22:21:08.071Z,96424.81
2022-12-14T22:26:10.025Z,96425.63
2022-12-14T22:31:11.835Z,96428.81
2022-12-14T22:36:15.096Z,96433.38
2022-12-14T22:41:18.137Z,96446.63
2022-12-14T22:46:20.530Z,96443.03
2022-12-14T22:51:22.396Z,96434.50
2022-12-14T22:56:31.205Z,96437.28
2022-12-14T23:01:36.011Z,96425.09
2022-12-14T23:06:38.047Z,96439.50
2022-12-14T23:11:58.341Z,96441.00
2022-12-14T23:17:19.519Z,96452.25
2022-12-14T23:22:39.692Z,96451.34
2022-12-14T23:27:59.902Z,96456.38
2022-12-14T23:33:20.218Z,96457.19
2022-12-14T23:38:40.466Z,96452.09
2022-12-14T23:44:01.125Z,96459.47
2022-12-14T23:49:21.648Z,96456.88
2022-12-14T23:54:41.852Z,96455.91
